Time;durP1;ratioP1;P1;durP2;ratioP2;P2;SDS_P1;SDS_P2;PMS_P1;PMS_P2;Temp;Humidity;BMP_temperature;BMP_pressure;BME280_temperature;BME280_humidity;BME280_pressure;Samples;Min_cycle;Max_cycle;Signal;HPM_P1;HPM_P2
2021/10/17 00:01:18;;;;;;;4.23;3.20;;;11.20;1.00;;;;;;5085984;28;20403;-79
2021/10/17 00:03:45;;;;;;;5.33;4.70;;;11.20;1.00;;;;;;5092084;28;20439;-81
2021/10/17 00:06:11;;;;;;;5.40;4.03;;;11.10;1.00;;;;;;5094266;28;20510;-80
2021/10/17 00:08:38;;;;;;;5.40;4.03;;;11.10;1.00;;;;;;5090800;28;21440;-79
2021/10/17 00:11:04;;;;;;;5.83;3.57;;;11.00;1.00;;;;;;5088435;28;20406;-80
2021/10/17 00:13:31;;;;;;;3.67;2.93;;;11.00;1.00;;;;;;5088219;28;20403;-80
2021/10/17 00:15:59;;;;;;;6.40;3.40;;;11.00;1.00;;;;;;5071828;28;24894;-81
2021/10/17 00:18:26;;;;;;;6.30;4.33;;;10.90;1.00;;;;;;5067807;28;21826;-81
2021/10/17 00:20:53;;;;;;;5.13;4.10;;;11.00;1.00;;;;;;5057535;28;20455;-79
2021/10/17 00:23:20;;;;;;;8.97;6.67;;;11.00;1.00;;;;;;5061220;28;20485;-79
2021/10/17 00:25:46;;;;;;;7.63;4.20;;;11.00;1.00;;;;;;5056417;28;20519;-79
2021/10/17 00:28:13;;;;;;;6.07;3.87;;;11.00;1.00;;;;;;5058256;28;21335;-80
2021/10/17 00:30:40;;;;;;;6.00;4.03;;;11.00;1.00;;;;;;5070087;28;21517;-78
2021/10/17 00:33:08;;;;;;;4.40;3.23;;;11.10;1.00;;;;;;5079179;28;20440;-78
2021/10/17 00:35:36;;;;;;;4.67;3.70;;;11.00;1.00;;;;;;5061282;28;20438;-80
2021/10/17 00:38:02;;;;;;;5.10;4.10;;;11.00;1.00;;;;;;5061233;28;20533;-80
2021/10/17 00:40:29;;;;;;;7.03;4.60;;;11.00;1.00;;;;;;5062024;28;20475;-79
2021/10/17 00:43:08;;;;;;;4.50;4.07;;;11.00;1.00;;;;;;5066439;28;20455;-80
2021/10/17 00:45:34;;;;;;;7.27;4.77;;;10.90;1.00;;;;;;5060460;28;21579;-81
2021/10/17 00:48:04;;;;;;;8.03;5.03;;;10.90;1.00;;;;;;5065691;28;20454;-81
2021/10/17 00:50:32;;;;;;;6.70;4.93;;;10.90;1.00;;;;;;5058119;28;20554;-81
2021/10/17 00:52:59;;;;;;;8.37;4.57;;;10.90;1.00;;;;;;5071001;28;20459;-81
2021/10/17 00:55:28;;;;;;;6.93;5.83;;;10.90;1.00;;;;;;5057699;28;20438;-80
2021/10/17 00:57:59;;;;;;;15.77;11.60;;;10.80;1.00;;;;;;5064798;28;21287;-80
2021/10/17 01:00:26;;;;;;;12.60;9.40;;;10.80;1.00;;;;;;5064279;28;20435;-81
2021/10/17 01:02:53;;;;;;;15.23;7.40;;;10.80;1.00;;;;;;5064745;28;20519;-81
2021/10/17 01:05:20;;;;;;;8.20;5.00;;;10.80;1.00;;;;;;5061088;28;20954;-81
2021/10/17 01:07:48;;;;;;;9.43;5.57;;;10.80;1.00;;;;;;5062794;28;20453;-78
2021/10/17 01:10:17;;;;;;;7.70;5.47;;;10.80;1.00;;;;;;5061504;28;20447;-80
2021/10/17 01:12:43;;;;;;;4.20;3.30;;;10.80;1.00;;;;;;5059781;28;20451;-80
2021/10/17 01:15:11;;;;;;;6.70;4.10;;;10.80;1.00;;;;;;5056804;28;20439;-80
2021/10/17 01:17:38;;;;;;;7.23;3.83;;;10.80;1.00;;;;;;5061680;28;20474;-80
2021/10/17 01:20:07;;;;;;;5.80;3.70;;;10.80;1.00;;;;;;5055910;28;20460;-81
2021/10/17 01:22:35;;;;;;;9.30;4.20;;;10.80;1.00;;;;;;5064470;28;20839;-80
2021/10/17 01:25:03;;;;;;;7.40;4.90;;;10.80;1.00;;;;;;5060993;28;20819;-79
2021/10/17 01:27:30;;;;;;;6.80;3.97;;;10.80;1.00;;;;;;5068420;28;20467;-79
2021/10/17 01:29:56;;;;;;;4.80;3.90;;;10.80;1.00;;;;;;5064554;28;20469;-80
2021/10/17 01:32:23;;;;;;;7.57;4.57;;;10.70;1.00;;;;;;5062505;28;20447;-79
2021/10/17 01:34:50;;;;;;;9.40;3.90;;;10.70;1.00;;;;;;5082255;28;20542;-79
2021/10/17 01:37:18;;;;;;;17.63;4.70;;;10.70;1.00;;;;;;5079097;28;20415;-80
2021/10/17 01:39:44;;;;;;;4.60;3.53;;;10.70;1.00;;;;;;5062903;28;21237;-80
2021/10/17 01:42:11;;;;;;;4.53;3.23;;;10.70;1.00;;;;;;5059756;28;20459;-80
2021/10/17 01:44:38;;;;;;;4.63;3.50;;;10.70;1.00;;;;;;5062249;28;21134;-80
2021/10/17 01:47:07;;;;;;;5.07;3.40;;;10.70;1.00;;;;;;5058453;28;21379;-80
2021/10/17 01:49:35;;;;;;;4.83;2.87;;;10.70;1.00;;;;;;5056857;28;20495;-81
2021/10/17 01:52:01;;;;;;;5.40;3.37;;;10.70;1.00;;;;;;5057808;28;20424;-80
2021/10/17 01:54:30;;;;;;;6.40;3.47;;;10.70;1.00;;;;;;5058910;28;20459;-80
2021/10/17 01:56:56;;;;;;;6.27;4.53;;;10.70;1.00;;;;;;5058991;28;20458;-79
2021/10/17 01:59:23;;;;;;;3.50;3.13;;;10.70;1.00;;;;;;5060207;28;20455;-79
2021/10/17 02:01:50;;;;;;;5.90;4.00;;;10.60;1.00;;;;;;5059021;28;20537;-80
2021/10/17 02:04:16;;;;;;;6.03;3.70;;;10.60;1.00;;;;;;5056546;28;20449;-81
2021/10/17 02:06:43;;;;;;;7.47;3.50;;;10.60;1.00;;;;;;5058869;28;20475;-82
2021/10/17 02:09:10;;;;;;;3.80;3.20;;;10.60;1.00;;;;;;5059156;28;20499;-79
2021/10/17 02:11:38;;;;;;;7.77;3.53;;;10.60;1.00;;;;;;5059761;28;20475;-80
2021/10/17 02:14:05;;;;;;;3.87;3.47;;;10.60;1.00;;;;;;5063640;28;20589;-79
2021/10/17 02:16:32;;;;;;;5.17;3.40;;;10.60;1.00;;;;;;5060182;28;20446;-80
2021/10/17 02:18:58;;;;;;;6.03;3.80;;;10.60;1.00;;;;;;5063791;28;20450;-79
2021/10/17 02:21:25;;;;;;;6.40;3.53;;;10.60;1.00;;;;;;5062350;28;20670;-79
2021/10/17 02:23:52;;;;;;;5.57;3.83;;;10.60;1.00;;;;;;5063706;28;21597;-81
2021/10/17 02:26:19;;;;;;;6.10;4.13;;;10.60;1.00;;;;;;5064973;28;20424;-80
2021/10/17 02:28:47;;;;;;;5.13;3.20;;;10.50;1.00;;;;;;5066871;28;20404;-80
2021/10/17 02:31:14;;;;;;;8.70;3.47;;;10.60;1.00;;;;;;5062430;28;20450;-80
2021/10/17 02:33:40;;;;;;;5.47;3.97;;;10.50;1.00;;;;;;5061827;28;21187;-81
2021/10/17 02:36:07;;;;;;;5.80;4.30;;;10.50;1.00;;;;;;5064173;28;20430;-80
2021/10/17 02:38:34;;;;;;;4.30;3.90;;;10.50;1.00;;;;;;5064057;28;20437;-80
2021/10/17 02:41:01;;;;;;;4.33;3.17;;;10.50;1.00;;;;;;5067800;28;20574;-80
2021/10/17 02:43:27;;;;;;;5.20;3.20;;;10.40;1.00;;;;;;5066728;28;20485;-80
2021/10/17 02:45:56;;;;;;;6.93;4.50;;;10.50;1.00;;;;;;5068888;28;20566;-80
2021/10/17 02:48:22;;;;;;;4.17;3.60;;;10.40;1.00;;;;;;5068660;28;20932;-81
2021/10/17 02:50:49;;;;;;;8.87;3.63;;;10.30;1.00;;;;;;5068464;28;20430;-80
2021/10/17 02:53:16;;;;;;;5.43;3.57;;;10.30;1.00;;;;;;5067216;28;20462;-81
2021/10/17 02:55:42;;;;;;;4.63;3.37;;;10.30;1.00;;;;;;5064035;28;20443;-80
2021/10/17 02:58:09;;;;;;;4.70;3.07;;;10.30;1.00;;;;;;5067385;28;20455;-79
2021/10/17 03:00:36;;;;;;;5.13;3.50;;;10.40;1.00;;;;;;5068505;28;20966;-80
2021/10/17 03:03:05;;;;;;;4.13;3.73;;;10.40;1.00;;;;;;5062484;28;20452;-81
2021/10/17 03:05:31;;;;;;;6.73;3.57;;;10.40;1.00;;;;;;5064582;28;20451;-79
2021/10/17 03:07:58;;;;;;;5.33;3.90;;;10.40;1.00;;;;;;5062434;28;20446;-81
2021/10/17 03:10:25;;;;;;;8.37;3.47;;;10.30;1.00;;;;;;5065765;28;20463;-80
2021/10/17 03:12:52;;;;;;;4.97;4.03;;;10.30;1.00;;;;;;5068128;28;20416;-81
2021/10/17 03:15:19;;;;;;;4.97;3.50;;;10.30;1.00;;;;;;5062976;28;20439;-81
2021/10/17 03:17:47;;;;;;;4.60;3.10;;;10.40;1.00;;;;;;5065950;28;20850;-81
2021/10/17 03:20:15;;;;;;;5.73;3.30;;;10.40;1.00;;;;;;5063066;28;20454;-81
2021/10/17 03:22:42;;;;;;;5.87;3.77;;;10.30;1.00;;;;;;5062878;28;20442;-81
2021/10/17 03:25:10;;;;;;;9.13;3.90;;;10.30;1.00;;;;;;5065462;28;21907;-80
2021/10/17 03:27:36;;;;;;;5.37;3.80;;;10.20;1.00;;;;;;5066345;28;20451;-81
2021/10/17 03:30:04;;;;;;;7.20;4.10;;;10.20;1.00;;;;;;5066476;28;21395;-80
2021/10/17 03:32:31;;;;;;;4.77;3.63;;;10.20;1.00;;;;;;5064587;28;20551;-80
2021/10/17 03:34:57;;;;;;;7.47;3.77;;;10.30;1.00;;;;;;5067403;28;20435;-80
2021/10/17 03:37:25;;;;;;;4.73;3.10;;;10.20;1.00;;;;;;5074439;28;20461;-79
2021/10/17 03:39:52;;;;;;;4.83;4.07;;;10.20;1.00;;;;;;5076401;28;20434;-80
2021/10/17 03:42:19;;;;;;;6.10;3.53;;;10.20;1.00;;;;;;5080090;28;21715;-79
2021/10/17 03:44:45;;;;;;;4.87;3.70;;;10.20;1.00;;;;;;5066370;28;20236;-79
2021/10/17 03:47:12;;;;;;;4.80;3.77;;;10.20;1.00;;;;;;5065311;28;20440;-80
2021/10/17 03:49:40;;;;;;;5.90;3.60;;;10.10;1.00;;;;;;5065155;28;20468;-81
2021/10/17 03:52:07;;;;;;;3.93;3.53;;;10.00;1.00;;;;;;5063088;28;20509;-81
2021/10/17 03:54:35;;;;;;;6.50;4.20;;;9.80;1.00;;;;;;5065197;28;20458;-80
2021/10/17 03:57:02;;;;;;;3.83;3.43;;;9.70;1.00;;;;;;5063694;28;20242;-81
2021/10/17 03:59:28;;;;;;;8.30;3.30;;;9.50;1.00;;;;;;5061747;28;20463;-81
2021/10/17 04:01:55;;;;;;;3.60;3.30;;;9.40;1.00;;;;;;5066763;28;20465;-81
2021/10/17 04:04:21;;;;;;;6.10;4.60;;;9.40;1.00;;;;;;5064361;28;20236;-82
2021/10/17 04:06:48;;;;;;;9.90;4.57;;;9.30;1.00;;;;;;5060046;28;20494;-81
2021/10/17 04:09:15;;;;;;;4.40;3.38;;;9.30;1.00;;;;;;5063875;28;20234;-81
2021/10/17 04:11:46;;;;;;;4.90;3.85;;;9.20;1.00;;;;;;5064963;28;20753;-81
2021/10/17 04:14:13;;;;;;;4.57;3.38;;;9.10;1.00;;;;;;5063385;28;20221;-81
2021/10/17 04:16:39;;;;;;;8.93;4.28;;;9.00;1.00;;;;;;5063555;28;20256;-80
2021/10/17 04:19:06;;;;;;;4.88;3.55;;;9.00;1.00;;;;;;5064897;28;20227;-81
2021/10/17 04:21:33;;;;;;;7.63;3.88;;;8.90;1.00;;;;;;5062683;28;20748;-79
2021/10/17 04:23:59;;;;;;;6.60;4.17;;;8.90;1.00;;;;;;5058272;28;20217;-80
2021/10/17 04:26:26;;;;;;;7.27;4.27;;;8.80;1.00;;;;;;5061851;28;20460;-80
2021/10/17 04:28:54;;;;;;;5.75;3.90;;;8.80;1.00;;;;;;5067292;28;20463;-80
2021/10/17 04:31:21;;;;;;;7.78;4.72;;;8.80;1.00;;;;;;5066410;28;21055;-81
2021/10/17 04:33:47;;;;;;;5.47;4.20;;;8.70;1.00;;;;;;5065274;28;20224;-79
2021/10/17 04:36:14;;;;;;;8.35;4.07;;;8.70;1.00;;;;;;5071230;28;20234;-80
2021/10/17 04:38:41;;;;;;;5.93;3.60;;;8.70;1.00;;;;;;5066063;28;21189;-80
2021/10/17 04:41:08;;;;;;;4.53;3.45;;;8.60;1.00;;;;;;5077257;28;20221;-80
2021/10/17 04:43:35;;;;;;;7.38;4.43;;;8.60;1.00;;;;;;5078326;28;20221;-80
2021/10/17 04:46:04;;;;;;;5.97;3.50;;;8.60;1.00;;;;;;5083753;28;20230;-80
2021/10/17 04:48:30;;;;;;;5.45;3.40;;;8.60;1.00;;;;;;5082316;28;20225;-80
2021/10/17 04:50:57;;;;;;;5.32;3.70;;;8.50;1.00;;;;;;5081127;28;20227;-80
2021/10/17 04:53:24;;;;;;;5.13;4.05;;;8.50;1.00;;;;;;5079243;28;20222;-80
2021/10/17 04:55:50;;;;;;;7.65;4.75;;;8.40;1.00;;;;;;5090055;28;20231;-79
2021/10/17 04:58:17;;;;;;;13.65;4.85;;;8.40;1.00;;;;;;5090578;28;20235;-80
2021/10/17 05:00:43;;;;;;;4.75;2.92;;;8.40;1.00;;;;;;5082673;28;20222;-79
2021/10/17 05:03:11;;;;;;;6.05;4.30;;;8.30;1.00;;;;;;5082130;28;20649;-79
2021/10/17 05:05:38;;;;;;;6.20;4.22;;;8.20;1.00;;;;;;5075790;28;20253;-80
2021/10/17 05:08:05;;;;;;;5.55;3.38;;;8.10;1.00;;;;;;5069620;28;20220;-79
2021/10/17 05:10:32;;;;;;;7.30;3.63;;;8.10;1.00;;;;;;5069361;28;21002;-81
2021/10/17 05:12:58;;;;;;;4.72;3.38;;;8.10;1.00;;;;;;5064523;28;20301;-80
2021/10/17 05:15:25;;;;;;;6.18;4.00;;;8.00;1.00;;;;;;5061174;28;20375;-80
2021/10/17 05:17:52;;;;;;;7.32;3.70;;;8.00;1.00;;;;;;5062043;28;20222;-79
2021/10/17 05:20:20;;;;;;;5.85;3.92;;;7.90;1.00;;;;;;5064785;28;21006;-82
2021/10/17 05:22:46;;;;;;;6.80;3.42;;;7.80;1.00;;;;;;5057131;28;20908;-80
2021/10/17 05:25:13;;;;;;;8.02;4.30;;;7.80;1.00;;;;;;5059189;28;20233;-80
2021/10/17 05:27:40;;;;;;;6.75;4.30;;;7.70;1.00;;;;;;5061396;28;20265;-80
2021/10/17 05:30:07;;;;;;;5.00;4.13;;;7.60;1.00;;;;;;5061813;28;20212;-81
2021/10/17 05:32:34;;;;;;;7.22;3.58;;;7.60;1.00;;;;;;5060647;28;20332;-80
2021/10/17 05:35:01;;;;;;;6.82;4.40;;;7.60;1.00;;;;;;5060042;28;20233;-80
2021/10/17 05:37:29;;;;;;;5.70;4.07;;;7.50;1.00;;;;;;5064434;28;20226;-78
2021/10/17 05:39:55;;;;;;;5.90;4.10;;;7.50;1.00;;;;;;5079956;28;20222;-79
2021/10/17 05:42:22;;;;;;;8.20;3.83;;;7.50;1.00;;;;;;5076635;28;20276;-79
2021/10/17 05:44:48;;;;;;;6.40;4.25;;;7.40;1.00;;;;;;5062049;28;20302;-80
2021/10/17 05:47:15;;;;;;;6.28;4.35;;;7.40;1.00;;;;;;5069342;28;20219;-80
2021/10/17 05:49:41;;;;;;;11.40;4.10;;;7.40;1.00;;;;;;5065921;28;20238;-81
2021/10/17 05:52:08;;;;;;;7.03;4.60;;;7.40;1.00;;;;;;5067006;28;20239;-80
2021/10/17 05:54:36;;;;;;;7.30;4.45;;;7.40;1.00;;;;;;5062750;28;20225;-81
2021/10/17 05:57:03;;;;;;;5.95;4.25;;;7.40;1.00;;;;;;5063232;28;20221;-80
2021/10/17 05:59:29;;;;;;;6.15;4.45;;;7.50;1.00;;;;;;5060519;28;20233;-81
2021/10/17 06:01:56;;;;;;;6.47;4.60;;;7.60;1.00;;;;;;5058199;28;20223;-79
2021/10/17 06:04:23;;;;;;;6.60;4.80;;;7.70;1.00;;;;;;5063379;28;20229;-78
2021/10/17 06:06:49;;;;;;;6.82;5.10;;;7.80;1.00;;;;;;5061836;28;20483;-77
2021/10/17 06:09:16;;;;;;;8.80;4.95;;;7.90;1.00;;;;;;5059286;28;20243;-77
2021/10/17 06:11:44;;;;;;;7.00;4.15;;;8.00;1.00;;;;;;5063811;28;20283;-77
2021/10/17 06:14:11;;;;;;;6.38;5.15;;;8.10;1.00;;;;;;5060764;28;21114;-77
2021/10/17 06:16:37;;;;;;;5.63;4.07;;;8.20;1.00;;;;;;5059526;28;20225;-75
2021/10/17 06:19:04;;;;;;;5.55;3.90;;;8.40;1.00;;;;;;5062635;28;20535;-76
2021/10/17 06:21:31;;;;;;;8.82;4.80;;;8.50;1.00;;;;;;5061038;28;20228;-77
2021/10/17 06:23:57;;;;;;;5.63;4.32;;;8.50;1.00;;;;;;5059490;28;20218;-75
2021/10/17 06:26:24;;;;;;;8.32;4.10;;;8.60;1.00;;;;;;5062942;28;20238;-76
2021/10/17 06:28:52;;;;;;;8.07;4.35;;;8.70;1.00;;;;;;5064142;28;20227;-75
2021/10/17 06:31:18;;;;;;;7.03;4.25;;;8.70;1.00;;;;;;5061553;28;20348;-76
2021/10/17 06:33:45;;;;;;;7.40;4.20;;;8.80;1.00;;;;;;5061535;28;20229;-76
2021/10/17 06:36:11;;;;;;;7.85;5.22;;;8.90;1.00;;;;;;5060194;28;20229;-76
2021/10/17 06:38:38;;;;;;;5.95;3.53;;;9.00;1.00;;;;;;5061912;28;20221;-76
2021/10/17 06:41:05;;;;;;;5.03;3.20;;;9.10;1.00;;;;;;5062908;28;20214;-75
2021/10/17 06:43:32;;;;;;;6.93;3.93;;;9.20;1.00;;;;;;5061900;28;20233;-76
2021/10/17 06:46:00;;;;;;;7.70;4.17;;;9.30;1.00;;;;;;5058712;28;20521;-76
2021/10/17 06:48:27;;;;;;;6.60;4.15;;;9.40;1.00;;;;;;5060765;28;20531;-75
2021/10/17 06:50:53;;;;;;;6.03;3.53;;;9.40;1.00;;;;;;5057829;28;20235;-75
2021/10/17 06:53:21;;;;;;;5.00;3.13;;;9.50;1.00;;;;;;5055834;28;20470;-76
2021/10/17 06:55:48;;;;;;;6.10;3.90;;;9.50;1.00;;;;;;5053837;28;20481;-75
2021/10/17 06:58:14;;;;;;;9.35;4.18;;;9.60;1.00;;;;;;5052982;28;20468;-76
2021/10/17 07:00:41;;;;;;;6.70;4.10;;;9.60;1.00;;;;;;5054804;28;20223;-76
2021/10/17 07:03:09;;;;;;;6.10;3.35;;;9.70;1.00;;;;;;5055694;28;20446;-75
2021/10/17 07:05:35;;;;;;;8.40;4.18;;;9.80;1.00;;;;;;5053921;28;20723;-77
2021/10/17 07:08:02;;;;;;;8.88;4.20;;;9.90;1.00;;;;;;5052472;28;20223;-76
2021/10/17 07:10:29;;;;;;;6.80;4.07;;;9.90;1.00;;;;;;5056564;28;20220;-76
2021/10/17 07:12:55;;;;;;;7.07;3.47;;;10.00;1.00;;;;;;5055197;28;20448;-77
2021/10/17 07:15:22;;;;;;;6.43;4.73;;;10.00;1.00;;;;;;5054219;28;20463;-77
2021/10/17 07:17:48;;;;;;;8.03;4.20;;;10.10;1.00;;;;;;5056949;28;20434;-76
2021/10/17 07:20:16;;;;;;;6.63;3.73;;;10.20;1.00;;;;;;5058095;28;20455;-77
2021/10/17 07:22:43;;;;;;;8.90;3.57;;;10.20;1.00;;;;;;5053893;28;20448;-78
2021/10/17 07:25:10;;;;;;;8.33;4.60;;;10.30;1.00;;;;;;5054981;28;20451;-76
2021/10/17 07:27:37;;;;;;;9.10;3.67;;;10.30;1.00;;;;;;5058726;28;21643;-76
2021/10/17 07:30:05;;;;;;;7.80;3.90;;;10.30;1.00;;;;;;5060824;28;20458;-76
2021/10/17 07:32:32;;;;;;;5.30;3.70;;;10.40;1.00;;;;;;5063410;28;20422;-77
2021/10/17 07:34:59;;;;;;;4.40;3.20;;;10.40;1.00;;;;;;5062226;28;20448;-76
2021/10/17 07:37:27;;;;;;;7.90;3.75;;;10.40;1.00;;;;;;5065376;28;20446;-75
2021/10/17 07:39:54;;;;;;;6.10;3.80;;;10.50;1.00;;;;;;5059302;28;20296;-76
2021/10/17 07:42:20;;;;;;;5.70;3.60;;;10.50;1.00;;;;;;5065017;28;20446;-75
2021/10/17 07:44:47;;;;;;;4.63;3.10;;;10.50;1.00;;;;;;5066389;28;20515;-75
2021/10/17 07:47:14;;;;;;;5.40;3.80;;;10.50;1.00;;;;;;5062789;28;21696;-75
2021/10/17 07:49:40;;;;;;;4.30;3.50;;;10.60;1.00;;;;;;5064340;28;20439;-75
2021/10/17 07:52:07;;;;;;;6.03;3.90;;;10.70;1.00;;;;;;5059461;28;20467;-76
2021/10/17 07:54:37;;;;;;;7.00;3.37;;;10.70;1.00;;;;;;5063401;28;21320;-76
2021/10/17 07:57:04;;;;;;;11.00;3.83;;;10.70;1.00;;;;;;5062829;28;20444;-76
2021/10/17 07:59:31;;;;;;;7.93;3.50;;;10.60;1.00;;;;;;5064033;28;20516;-76
2021/10/17 08:01:57;;;;;;;9.23;3.90;;;10.60;1.00;;;;;;5061337;28;20486;-76
2021/10/17 08:04:25;;;;;;;7.60;4.90;;;10.70;1.00;;;;;;5063554;28;20455;-76
2021/10/17 08:06:52;;;;;;;6.10;3.57;;;10.80;1.00;;;;;;5061519;28;20518;-76
2021/10/17 08:09:19;;;;;;;5.30;3.13;;;11.00;1.00;;;;;;5062649;28;20462;-75
2021/10/17 08:11:47;;;;;;;9.13;3.90;;;11.00;1.00;;;;;;5061637;28;20463;-75
2021/10/17 08:14:14;;;;;;;7.30;3.73;;;11.10;1.00;;;;;;5061170;28;20996;-77
2021/10/17 08:16:40;;;;;;;6.60;3.60;;;11.00;1.00;;;;;;5065780;28;20538;-77
2021/10/17 08:19:07;;;;;;;8.40;4.30;;;11.00;1.00;;;;;;5067531;28;20447;-76
2021/10/17 08:21:33;;;;;;;5.90;4.07;;;11.10;1.00;;;;;;5064412;28;20450;-76
2021/10/17 08:24:01;;;;;;;5.67;4.27;;;11.20;1.00;;;;;;5060353;28;21503;-76
2021/10/17 08:26:28;;;;;;;7.40;3.90;;;11.20;1.00;;;;;;5064374;28;20451;-77
2021/10/17 08:28:56;;;;;;;8.13;3.90;;;11.30;1.00;;;;;;5061482;28;20464;-76
2021/10/17 08:31:23;;;;;;;7.50;4.07;;;11.50;1.00;;;;;;5065131;28;20447;-75
2021/10/17 08:33:50;;;;;;;6.60;4.93;;;11.50;1.00;;;;;;5062128;28;20457;-75
2021/10/17 08:36:17;;;;;;;9.27;3.90;;;11.60;1.00;;;;;;5062043;28;20566;-75
2021/10/17 08:38:43;;;;;;;5.63;4.57;;;11.70;1.00;;;;;;5060796;28;20937;-76
2021/10/17 08:41:12;;;;;;;14.13;10.70;;;11.90;1.00;;;;;;5062131;28;20859;-76
2021/10/17 08:43:39;;;;;;;10.20;5.77;;;12.10;1.00;;;;;;5061379;28;20471;-76
2021/10/17 08:46:11;;;;;;;8.80;4.13;;;12.20;1.00;;;;;;5063285;28;20458;-76
2021/10/17 08:48:38;;;;;;;5.23;4.37;;;12.20;1.00;;;;;;5063652;28;20569;-76
2021/10/17 08:51:06;;;;;;;6.83;4.77;;;12.30;1.00;;;;;;5063480;28;20459;-76
2021/10/17 08:53:33;;;;;;;6.40;4.10;;;12.50;1.00;;;;;;5059632;28;20475;-75
2021/10/17 08:56:00;;;;;;;6.97;3.70;;;12.70;1.00;;;;;;5061581;28;20436;-75
2021/10/17 08:58:26;;;;;;;6.10;4.23;;;12.80;1.00;;;;;;5060809;28;20526;-77
2021/10/17 09:00:53;;;;;;;5.60;4.00;;;12.90;1.00;;;;;;5063864;28;20463;-76
2021/10/17 09:03:32;;;;;;;7.00;4.43;;;13.00;1.00;;;;;;5064180;28;20481;-75
2021/10/17 09:06:15;;;;;;;7.40;4.90;;;13.10;1.00;;;;;;5064488;28;20451;-76
2021/10/17 09:08:42;;;;;;;8.33;5.20;;;13.10;1.00;;;;;;5066385;28;20990;-75
2021/10/17 09:11:09;;;;;;;7.07;4.20;;;12.90;1.00;;;;;;5063356;28;20440;-75
2021/10/17 09:13:36;;;;;;;7.00;5.00;;;12.70;1.00;;;;;;5059796;28;20456;-76
2021/10/17 09:16:23;;;;;;;5.83;4.13;;;12.50;1.00;;;;;;5066590;28;20494;-77
2021/10/17 09:19:09;;;;;;;8.17;4.90;;;12.50;1.00;;;;;;5065368;28;20494;-76
2021/10/17 09:21:36;;;;;;;6.60;4.70;;;12.80;1.00;;;;;;5069845;28;20443;-76
2021/10/17 09:24:03;;;;;;;6.80;4.90;;;13.20;1.00;;;;;;5063815;28;21350;-76
2021/10/17 09:26:32;;;;;;;6.47;4.23;;;13.50;1.00;;;;;;5065472;28;20459;-76
2021/10/17 09:28:59;;;;;;;6.37;4.10;;;13.70;1.00;;;;;;5065073;28;20887;-76
2021/10/17 09:31:26;;;;;;;8.17;4.30;;;13.90;1.00;;;;;;5067127;28;20471;-76
2021/10/17 09:33:55;;;;;;;6.67;4.60;;;14.10;1.00;;;;;;5065212;28;21238;-76
2021/10/17 09:36:28;;;;;;;9.73;4.43;;;14.40;1.00;;;;;;5065768;28;21126;-76
2021/10/17 09:39:04;;;;;;;4.33;3.47;;;14.40;1.00;;;;;;5065192;28;20567;-76
2021/10/17 09:41:34;;;;;;;5.37;3.37;;;14.40;1.00;;;;;;5067535;28;20939;-76
2021/10/17 09:44:02;;;;;;;6.17;3.53;;;14.40;1.00;;;;;;5065869;28;20582;-76
2021/10/17 09:46:29;;;;;;;5.30;4.30;;;14.40;1.00;;;;;;5063863;28;20551;-76
2021/10/17 09:48:57;;;;;;;5.70;4.00;;;14.10;1.00;;;;;;5064092;28;20444;-76
2021/10/17 09:51:26;;;;;;;5.63;3.80;;;14.00;1.00;;;;;;5065533;28;20464;-75
2021/10/17 09:53:54;;;;;;;5.77;3.70;;;14.00;1.00;;;;;;5061798;28;20618;-77
2021/10/17 09:56:25;;;;;;;5.77;3.70;;;14.10;1.00;;;;;;5063092;28;20451;-76
2021/10/17 09:58:53;;;;;;;6.90;4.13;;;14.30;1.00;;;;;;5063583;28;20436;-77
2021/10/17 10:01:22;;;;;;;6.07;3.90;;;14.40;1.00;;;;;;5064770;28;20460;-76
2021/10/17 10:03:51;;;;;;;5.90;3.50;;;14.40;1.00;;;;;;5066195;28;20546;-76
2021/10/17 10:06:19;;;;;;;6.23;3.90;;;14.40;1.00;;;;;;5069548;28;20457;-76
2021/10/17 10:08:47;;;;;;;6.13;3.87;;;14.40;1.00;;;;;;5065536;28;20439;-76
2021/10/17 10:11:15;;;;;;;7.13;4.03;;;14.60;1.00;;;;;;5069889;28;20463;-75
2021/10/17 10:13:43;;;;;;;5.73;4.20;;;14.90;1.00;;;;;;5064642;28;20968;-76
2021/10/17 10:16:09;;;;;;;7.57;5.17;;;15.00;1.00;;;;;;5066796;28;20502;-78
2021/10/17 10:18:37;;;;;;;7.73;3.80;;;15.10;1.00;;;;;;5069979;28;21328;-76
2021/10/17 10:21:06;;;;;;;6.10;4.60;;;15.50;1.00;;;;;;5071601;28;20465;-76
2021/10/17 10:23:36;;;;;;;6.20;3.93;;;15.40;1.00;;;;;;5062767;28;20903;-75
2021/10/17 10:26:02;;;;;;;3.93;3.47;;;15.20;1.00;;;;;;5062568;28;20630;-77
2021/10/17 10:28:30;;;;;;;11.13;5.80;;;15.20;1.00;;;;;;5068673;28;20449;-76
2021/10/17 10:30:57;;;;;;;5.63;3.17;;;15.40;1.00;;;;;;5061573;28;20464;-76
2021/10/17 10:33:25;;;;;;;4.87;4.00;;;15.50;1.00;;;;;;5068461;28;20551;-77
2021/10/17 10:36:02;;;;;;;6.63;3.70;;;15.50;1.00;;;;;;5066416;28;20572;-77
2021/10/17 10:39:16;;;;;;;5.60;3.37;;;15.70;1.00;;;;;;5065590;28;20844;-76
2021/10/17 10:41:57;;;;;;;5.90;3.43;;;15.90;1.00;;;;;;5062077;28;20527;-76
2021/10/17 10:44:27;;;;;;;4.80;3.40;;;15.90;1.00;;;;;;5064827;28;20440;-77
2021/10/17 10:46:56;;;;;;;5.97;3.50;;;15.60;1.00;;;;;;5064387;28;20473;-77
2021/10/17 10:49:44;;;;;;;6.87;3.63;;;15.60;1.00;;;;;;5063433;28;20441;-76
2021/10/17 10:52:26;;;;;;;8.33;3.50;;;15.90;1.00;;;;;;5063740;28;20444;-76
2021/10/17 10:54:55;;;;;;;7.10;3.37;;;15.90;1.00;;;;;;5068797;28;20460;-77
2021/10/17 10:57:24;;;;;;;5.30;2.80;;;15.70;1.00;;;;;;5063216;28;20444;-77
2021/10/17 11:00:03;;;;;;;7.83;3.97;;;15.60;1.00;;;;;;5060926;28;20545;-77
2021/10/17 11:02:30;;;;;;;5.00;2.83;;;15.40;1.00;;;;;;5065187;28;20494;-76
2021/10/17 11:05:14;;;;;;;5.40;3.53;;;14.90;1.00;;;;;;5061833;28;20447;-76
2021/10/17 11:07:45;;;;;;;4.60;3.20;;;14.80;1.00;;;;;;5067128;28;20466;-76
2021/10/17 11:10:46;;;;;;;5.43;3.83;;;14.60;1.00;;;;;;5078648;27;20514;-77
2021/10/17 11:13:27;;;;;;;5.90;4.47;;;14.60;1.00;;;;;;5062829;28;20474;-77
2021/10/17 11:15:54;;;;;;;8.30;3.50;;;14.60;1.00;;;;;;5066530;28;20474;-78
2021/10/17 11:18:31;;;;;;;6.27;4.77;;;14.60;1.00;;;;;;5066196;28;20447;-76
2021/10/17 11:20:58;;;;;;;4.60;3.70;;;14.50;1.00;;;;;;5065034;28;20545;-75
2021/10/17 11:23:27;;;;;;;7.73;3.60;;;14.50;1.00;;;;;;5067567;28;20549;-75
2021/10/17 11:25:55;;;;;;;8.47;4.43;;;14.50;1.00;;;;;;5062351;28;21149;-76
2021/10/17 11:28:25;;;;;;;7.10;4.07;;;14.50;1.00;;;;;;5066463;28;20460;-77
2021/10/17 11:31:01;;;;;;;8.63;3.77;;;14.50;1.00;;;;;;5062716;28;20921;-77
2021/10/17 11:33:27;;;;;;;7.77;4.00;;;14.60;1.00;;;;;;5063131;28;21145;-77
2021/10/17 11:35:57;;;;;;;5.07;3.77;;;14.70;1.00;;;;;;5062215;28;20480;-77
2021/10/17 11:38:24;;;;;;;6.23;3.67;;;15.00;1.00;;;;;;5067672;28;20446;-77
2021/10/17 11:40:50;;;;;;;6.10;3.63;;;15.40;1.00;;;;;;5065170;28;20462;-77
2021/10/17 11:43:17;;;;;;;5.37;3.90;;;15.60;1.00;;;;;;5062349;28;20471;-77
2021/10/17 11:45:47;;;;;;;5.20;3.60;;;15.90;1.00;;;;;;5062829;28;21270;-77
2021/10/17 11:48:16;;;;;;;4.53;3.70;;;16.10;1.00;;;;;;5063704;28;20483;-75
2021/10/17 11:50:45;;;;;;;8.60;4.17;;;16.10;1.00;;;;;;5065035;28;25280;-76
2021/10/17 11:53:13;;;;;;;7.37;4.77;;;16.00;1.00;;;;;;5063216;28;20438;-76
2021/10/17 11:55:42;;;;;;;8.90;4.30;;;16.00;1.00;;;;;;5060075;28;20469;-76
2021/10/17 11:58:14;;;;;;;7.20;4.37;;;15.90;1.00;;;;;;5064180;28;20476;-77
2021/10/17 12:00:41;;;;;;;6.77;3.70;;;15.80;1.00;;;;;;5062666;28;20462;-76
2021/10/17 12:03:09;;;;;;;9.53;3.40;;;15.60;1.00;;;;;;5061812;28;20466;-76
2021/10/17 12:05:41;;;;;;;6.90;3.90;;;15.60;1.00;;;;;;5066709;28;21373;-76
2021/10/17 12:08:17;;;;;;;6.07;3.73;;;15.60;1.00;;;;;;5063898;28;20544;-76
2021/10/17 12:10:53;;;;;;;11.10;4.13;;;15.50;1.00;;;;;;5057147;28;20453;-77
2021/10/17 12:13:19;;;;;;;10.40;6.23;;;15.20;1.00;;;;;;5062731;28;20455;-76
2021/10/17 12:15:46;;;;;;;5.97;3.70;;;15.00;1.00;;;;;;5056813;28;20490;-76
2021/10/17 12:18:14;;;;;;;7.30;4.00;;;15.00;1.00;;;;;;5061737;28;20480;-77
2021/10/17 12:20:42;;;;;;;7.43;4.23;;;15.20;1.00;;;;;;5053845;28;20532;-76
2021/10/17 12:23:09;;;;;;;6.20;4.03;;;15.30;1.00;;;;;;5058186;28;21430;-77
2021/10/17 12:25:36;;;;;;;5.00;3.80;;;15.40;1.00;;;;;;5057446;28;20461;-77
2021/10/17 12:28:02;;;;;;;6.87;4.10;;;15.40;1.00;;;;;;5060836;28;20502;-76
2021/10/17 12:30:33;;;;;;;7.43;4.40;;;15.50;1.00;;;;;;5055663;28;20472;-77
2021/10/17 12:33:02;;;;;;;7.13;4.03;;;15.40;1.00;;;;;;5057360;28;20430;-77
2021/10/17 12:35:35;;;;;;;5.37;3.83;;;15.30;1.00;;;;;;5059045;28;20468;-77
2021/10/17 12:38:06;;;;;;;6.30;4.03;;;15.10;1.00;;;;;;5052890;28;20436;-75
2021/10/17 12:40:34;;;;;;;10.30;6.23;;;15.00;1.00;;;;;;5059073;28;20440;-77
2021/10/17 12:43:02;;;;;;;7.53;4.10;;;15.00;1.00;;;;;;5051309;28;20959;-76
2021/10/17 12:45:30;;;;;;;5.87;4.07;;;15.00;1.00;;;;;;5056560;28;20521;-76
2021/10/17 12:47:59;;;;;;;10.37;4.10;;;15.00;1.00;;;;;;5058651;28;22021;-77
2021/10/17 12:50:28;;;;;;;6.83;4.33;;;15.00;1.00;;;;;;5061240;28;20538;-76
2021/10/17 12:52:59;;;;;;;9.23;4.50;;;15.00;1.00;;;;;;5057699;28;20970;-75
2021/10/17 12:55:31;;;;;;;4.57;4.00;;;15.00;1.00;;;;;;5060771;28;20470;-78
2021/10/17 12:58:06;;;;;;;7.87;3.90;;;15.20;1.00;;;;;;5059086;28;20456;-76
2021/10/17 13:00:33;;;;;;;9.60;3.90;;;15.10;1.00;;;;;;5062376;28;20457;-77
2021/10/17 13:03:18;;;;;;;6.43;5.23;;;15.10;1.00;;;;;;5057817;28;20449;-76
2021/10/17 13:05:53;;;;;;;6.00;3.90;;;15.10;1.00;;;;;;5061615;28;20562;-76